Time;durP1;ratioP1;P1;durP2;ratioP2;P2;SDS_P1;SDS_P2;PMS_P1;PMS_P2;Temp;Humidity;BMP_temperature;BMP_pressure;BME280_temperature;BME280_humidity;BME280_pressure;Samples;Min_cycle;Max_cycle;Signal;HPM_P1;HPM_P2
2022/06/09 00:01:49;;;;;;;;;;;;;;;;;;5098843;28;19953;-72
2022/06/09 00:04:15;;;;;;;;;;;;;;;;;;5117651;28;19907;-72
2022/06/09 00:06:41;;;;;;;;;;;;;;;;;;5117294;28;19908;-73
2022/06/09 00:09:07;;;;;;;;;;;;;;;;;;5116625;28;19994;-72
2022/06/09 00:11:33;;;;;;;;;;;;;;;;;;5116377;28;19932;-72
2022/06/09 00:13:58;;;;;;;;;;;;;;;;;;5116860;28;19947;-72
2022/06/09 00:16:25;;;;;;;;;;;;;;;;;;5117355;28;19915;-72
2022/06/09 00:18:51;;;;;;;;;;;;;;;;;;5116727;28;19912;-72
2022/06/09 00:21:17;;;;;;;;;;;;;;;;;;5117342;28;20253;-71
2022/06/09 00:23:43;;;;;;;;;;;;;;;;;;5116741;28;20344;-72
2022/06/09 00:26:09;;;;;;;;;;;;;;;;;;5116498;28;19920;-72
2022/06/09 00:28:35;;;;;;;;;;;;;;;;;;5116905;28;19983;-73
2022/06/09 00:31:00;;;;;;;;;;;;;;;;;;5116622;28;20399;-72
2022/06/09 00:33:26;;;;;;;;;;;;;;;;;;5117053;28;19908;-72
2022/06/09 00:35:52;;;;;;;;;;;;;;;;;;5116558;28;19964;-73
2022/06/09 00:38:18;;;;;;;;;;;;;;;;;;5116681;28;19920;-72
2022/06/09 00:40:44;;;;;;;;;;;;;;;;;;5116674;28;19915;-72
2022/06/09 00:43:10;;;;;;;;;;;;;;;;;;5116871;28;20342;-72
2022/06/09 00:45:36;;;;;;;;;;;;;;;;;;5116564;28;19911;-71
2022/06/09 00:48:02;;;;;;;;;;;;;;;;;;5116779;28;19984;-72
2022/06/09 00:50:28;;;;;;;;;;;;;;;;;;5116232;28;19912;-72
2022/06/09 00:52:54;;;;;;;;;;;;;;;;;;5116133;28;20423;-72
2022/06/09 00:55:19;;;;;;;;;;;;;;;;;;5116100;28;19914;-72
2022/06/09 00:57:46;;;;;;;;;;;;;;;;;;5116561;28;20275;-72
2022/06/09 01:00:12;;;;;;;;;;;;;;;;;;5097722;28;20368;-72
2022/06/09 01:02:38;;;;;;;;;;;;;;;;;;5116515;28;19985;-71
2022/06/09 01:05:04;;;;;;;;;;;;;;;;;;5097638;28;19985;-72
2022/06/09 01:07:30;;;;;;;;;;;;;;;;;;5097647;28;19994;-72
2022/06/09 01:09:56;;;;;;;;;;;;;;;;;;5097520;28;19908;-72
2022/06/09 01:12:22;;;;;;;;;;;;;;;;;;5097460;28;19907;-72
2022/06/09 01:14:48;;;;;;;;;;;;;;;;;;5115756;28;19916;-72
2022/06/09 01:17:14;;;;;;;;;;;;;;;;;;5115794;28;19914;-72
2022/06/09 01:19:40;;;;;;;;;;;;;;;;;;5115649;28;19939;-72
2022/06/09 01:22:06;;;;;;;;;;;;;;;;;;5115620;28;19913;-72
2022/06/09 01:24:32;;;;;;;;;;;;;;;;;;5115511;28;20412;-72
2022/06/09 01:26:58;;;;;;;;;;;;;;;;;;5115158;28;19932;-72
2022/06/09 01:29:23;;;;;;;;;;;;;;;;;;5115456;28;19908;-73
2022/06/09 01:31:49;;;;;;;;;;;;;;;;;;5115673;28;19907;-72
2022/06/09 01:34:15;;;;;;;;;;;;;;;;;;5115370;28;19961;-72
2022/06/09 01:36:41;;;;;;;;;;;;;;;;;;5115357;28;20006;-72
2022/06/09 01:39:07;;;;;;;;;;;;;;;;;;5115468;28;19958;-72
2022/06/09 01:41:33;;;;;;;;;;;;;;;;;;5115242;28;19908;-72
2022/06/09 01:43:59;;;;;;;;;;;;;;;;;;5115133;28;19912;-71
2022/06/09 01:46:25;;;;;;;;;;;;;;;;;;5115422;28;19965;-72
2022/06/09 01:48:51;;;;;;;;;;;;;;;;;;5115354;28;19912;-72
2022/06/09 01:51:17;;;;;;;;;;;;;;;;;;5096694;28;19908;-73
2022/06/09 01:53:44;;;;;;;;;;;;;;;;;;5114978;28;19907;-72
2022/06/09 01:56:09;;;;;;;;;;;;;;;;;;5114973;28;19908;-73
2022/06/09 01:58:35;;;;;;;;;;;;;;;;;;5114814;28;19912;-72
2022/06/09 02:01:01;;;;;;;;;;;;;;;;;;5115107;28;19912;-72
2022/06/09 02:03:28;;;;;;;;;;;;;;;;;;5114797;28;19908;-72
2022/06/09 02:05:54;;;;;;;;;;;;;;;;;;5114777;28;19957;-72
2022/06/09 02:08:20;;;;;;;;;;;;;;;;;;5096435;28;19911;-72
2022/06/09 02:10:49;;;;;;;;;;;;;;;;;;5114684;28;19965;-72
2022/06/09 02:13:15;;;;;;;;;;;;;;;;;;5114670;28;19953;-72
2022/06/09 02:15:41;;;;;;;;;;;;;;;;;;5114514;28;19911;-72
2022/06/09 02:18:07;;;;;;;;;;;;;;;;;;5114502;28;19916;-71
2022/06/09 02:20:33;;;;;;;;;;;;;;;;;;5115091;28;20310;-71
2022/06/09 02:22:59;;;;;;;;;;;;;;;;;;5114794;28;19914;-72
2022/06/09 02:25:25;;;;;;;;;;;;;;;;;;5114229;28;19916;-72
2022/06/09 02:27:51;;;;;;;;;;;;;;;;;;5095907;28;20280;-72
2022/06/09 02:30:17;;;;;;;;;;;;;;;;;;5114332;28;19908;-72
2022/06/09 02:32:43;;;;;;;;;;;;;;;;;;5113975;28;20065;-72
2022/06/09 02:35:09;;;;;;;;;;;;;;;;;;5114266;28;19920;-72
2022/06/09 02:37:34;;;;;;;;;;;;;;;;;;5114223;28;19912;-72
2022/06/09 02:40:00;;;;;;;;;;;;;;;;;;5114828;28;19915;-72
2022/06/09 02:42:26;;;;;;;;;;;;;;;;;;5114514;28;19907;-71
2022/06/09 02:44:52;;;;;;;;;;;;;;;;;;5114161;28;19943;-72
2022/06/09 02:47:18;;;;;;;;;;;;;;;;;;5114202;28;19916;-72
2022/06/09 02:49:44;;;;;;;;;;;;;;;;;;5114150;28;19908;-72
2022/06/09 02:52:10;;;;;;;;;;;;;;;;;;5114431;28;19912;-72
2022/06/09 02:54:36;;;;;;;;;;;;;;;;;;5114094;28;19977;-72
2022/06/09 02:57:02;;;;;;;;;;;;;;;;;;5114693;28;19908;-72
2022/06/09 02:59:28;;;;;;;;;;;;;;;;;;5113980;28;19915;-72
2022/06/09 03:01:54;;;;;;;;;;;;;;;;;;5114297;28;19908;-71
2022/06/09 03:04:20;;;;;;;;;;;;;;;;;;5114028;28;19976;-72
2022/06/09 03:06:46;;;;;;;;;;;;;;;;;;5095724;28;19907;-72
2022/06/09 03:09:12;;;;;;;;;;;;;;;;;;5113936;28;19907;-71
2022/06/09 03:11:38;;;;;;;;;;;;;;;;;;5113952;28;20011;-72
2022/06/09 03:14:04;;;;;;;;;;;;;;;;;;5095684;28;19912;-72
2022/06/09 03:16:30;;;;;;;;;;;;;;;;;;5095577;28;19914;-72
2022/06/09 03:18:56;;;;;;;;;;;;;;;;;;5113810;28;19919;-72
2022/06/09 03:21:22;;;;;;;;;;;;;;;;;;5114423;28;19907;-72
2022/06/09 03:23:51;;;;;;;;;;;;;;;;;;5095559;28;20375;-73
2022/06/09 03:26:17;;;;;;;;;;;;;;;;;;5113565;28;20384;-72
2022/06/09 03:28:43;;;;;;;;;;;;;;;;;;5095604;28;19908;-72
2022/06/09 03:31:09;;;;;;;;;;;;;;;;;;5113752;28;20292;-71
2022/06/09 03:33:35;;;;;;;;;;;;;;;;;;5114007;28;19908;-72
2022/06/09 03:36:02;;;;;;;;;;;;;;;;;;5113715;28;19939;-72
2022/06/09 03:38:28;;;;;;;;;;;;;;;;;;5113590;28;19970;-71
2022/06/09 03:40:54;;;;;;;;;;;;;;;;;;5113658;28;19908;-72
2022/06/09 03:43:20;;;;;;;;;;;;;;;;;;5113715;28;20265;-72
2022/06/09 03:45:46;;;;;;;;;;;;;;;;;;5116951;28;19915;-72
2022/06/09 03:48:12;;;;;;;;;;;;;;;;;;5117760;28;19908;-72
2022/06/09 03:50:38;;;;;;;;;;;;;;;;;;5117355;28;19914;-72
2022/06/09 03:53:04;;;;;;;;;;;;;;;;;;5117845;28;20025;-71
2022/06/09 03:55:30;;;;;;;;;;;;;;;;;;5117263;28;19908;-72
2022/06/09 03:57:55;;;;;;;;;;;;;;;;;;5098899;28;19912;-71
2022/06/09 04:00:21;;;;;;;;;;;;;;;;;;5117166;28;20367;-72
2022/06/09 04:02:47;;;;;;;;;;;;;;;;;;5098852;28;19912;-72
2022/06/09 04:05:13;;;;;;;;;;;;;;;;;;5117158;28;20429;-71
2022/06/09 04:07:40;;;;;;;;;;;;;;;;;;5117082;28;19915;-71
2022/06/09 04:10:05;;;;;;;;;;;;;;;;;;5098707;28;20296;-72
2022/06/09 04:12:31;;;;;;;;;;;;;;;;;;5117497;28;19908;-72
2022/06/09 04:14:57;;;;;;;;;;;;;;;;;;5116896;28;19913;-72
2022/06/09 04:17:24;;;;;;;;;;;;;;;;;;5116710;28;20434;-72
2022/06/09 04:19:50;;;;;;;;;;;;;;;;;;5116785;28;19939;-71
2022/06/09 04:22:16;;;;;;;;;;;;;;;;;;5117037;28;19907;-72
2022/06/09 04:24:42;;;;;;;;;;;;;;;;;;5116671;28;20003;-72
2022/06/09 04:27:08;;;;;;;;;;;;;;;;;;5098115;28;20010;-72
2022/06/09 04:29:33;;;;;;;;;;;;;;;;;;5116613;28;19915;-72
2022/06/09 04:31:59;;;;;;;;;;;;;;;;;;5116909;28;20010;-71
2022/06/09 04:34:25;;;;;;;;;;;;;;;;;;5116556;28;20407;-72
2022/06/09 04:36:51;;;;;;;;;;;;;;;;;;5116501;28;20002;-72
2022/06/09 04:39:17;;;;;;;;;;;;;;;;;;5098020;28;19934;-72
2022/06/09 04:41:43;;;;;;;;;;;;;;;;;;5116445;28;19960;-72
2022/06/09 04:44:09;;;;;;;;;;;;;;;;;;5116644;28;19908;-71
2022/06/09 04:46:35;;;;;;;;;;;;;;;;;;5116259;28;20284;-71
2022/06/09 04:49:00;;;;;;;;;;;;;;;;;;5116269;28;19908;-71
2022/06/09 04:51:26;;;;;;;;;;;;;;;;;;5116231;28;19930;-71
2022/06/09 04:53:52;;;;;;;;;;;;;;;;;;5116183;28;20049;-72
2022/06/09 04:56:18;;;;;;;;;;;;;;;;;;5096980;28;19912;-72
2022/06/09 04:58:44;;;;;;;;;;;;;;;;;;5116022;28;20364;-72
2022/06/09 05:01:10;;;;;;;;;;;;;;;;;;5116587;28;20314;-72
2022/06/09 05:03:36;;;;;;;;;;;;;;;;;;5115968;28;19908;-72
2022/06/09 05:06:02;;;;;;;;;;;;;;;;;;5116242;28;19943;-72
2022/06/09 05:08:28;;;;;;;;;;;;;;;;;;5097578;28;20386;-72
2022/06/09 05:10:53;;;;;;;;;;;;;;;;;;5115840;28;19907;-72
2022/06/09 05:13:19;;;;;;;;;;;;;;;;;;5116083;28;19911;-72
2022/06/09 05:15:45;;;;;;;;;;;;;;;;;;5115604;28;20010;-72
2022/06/09 05:18:11;;;;;;;;;;;;;;;;;;5116134;28;19912;-72
2022/06/09 05:20:37;;;;;;;;;;;;;;;;;;5097336;28;19915;-71
2022/06/09 05:23:03;;;;;;;;;;;;;;;;;;5115603;28;19908;-72
2022/06/09 05:25:29;;;;;;;;;;;;;;;;;;5097056;28;19916;-72
2022/06/09 05:27:55;;;;;;;;;;;;;;;;;;5116038;28;20010;-72
2022/06/09 05:30:21;;;;;;;;;;;;;;;;;;5115409;28;19993;-72
2022/06/09 05:32:47;;;;;;;;;;;;;;;;;;5115391;28;19908;-72
2022/06/09 05:35:13;;;;;;;;;;;;;;;;;;5115641;28;19908;-72
2022/06/09 05:45:53;;;;;;;;;;;;;;;;;;5115183;28;19958;-72
2022/06/09 05:48:19;;;;;;;;;;;;;;;;;;5115634;28;19916;-72
2022/06/09 05:50:45;;;;;;;;;;;;;;;;;;5115284;28;19915;-72
2022/06/09 05:53:11;;;;;;;;;;;;;;;;;;5096759;28;20253;-72
2022/06/09 05:55:37;;;;;;;;;;;;;;;;;;5115480;28;19914;-72
2022/06/09 05:58:03;;;;;;;;;;;;;;;;;;5114830;28;19911;-72
2022/06/09 06:00:29;;;;;;;;;;;;;;;;;;5114807;28;20368;-71
2022/06/09 06:02:55;;;;;;;;;;;;;;;;;;5096560;28;19914;-71
2022/06/09 06:08:06;;;;;;;;;;;;;;;;;;5113931;28;19915;-72
2022/06/09 06:10:32;;;;;;;;;;;;;;;;;;5096415;28;19914;-71
2022/06/09 06:12:58;;;;;;;;;;;;;;;;;;5114973;28;19915;-72
2022/06/09 06:15:24;;;;;;;;;;;;;;;;;;5114490;28;20368;-72
2022/06/09 06:17:50;;;;;;;;;;;;;;;;;;5096238;28;19919;-72
2022/06/09 06:20:16;;;;;;;;;;;;;;;;;;5096219;28;19908;-72
2022/06/09 06:22:42;;;;;;;;;;;;;;;;;;5114771;28;20010;-72
2022/06/09 06:25:08;;;;;;;;;;;;;;;;;;5114229;28;19952;-72
2022/06/09 06:27:33;;;;;;;;;;;;;;;;;;5115040;28;19912;-72
2022/06/09 06:29:59;;;;;;;;;;;;;;;;;;5114652;28;19914;-72
2022/06/09 06:32:25;;;;;;;;;;;;;;;;;;5114366;28;20359;-73
2022/06/09 06:34:51;;;;;;;;;;;;;;;;;;5114334;28;19908;-73
2022/06/09 06:37:17;;;;;;;;;;;;;;;;;;5114521;28;20332;-72
2022/06/09 06:39:43;;;;;;;;;;;;;;;;;;5114225;28;19998;-72
2022/06/09 06:42:09;;;;;;;;;;;;;;;;;;5114245;28;19908;-73
2022/06/09 06:44:36;;;;;;;;;;;;;;;;;;5095933;28;19933;-73
2022/06/09 06:47:02;;;;;;;;;;;;;;;;;;5095694;28;19934;-72
2022/06/09 06:49:28;;;;;;;;;;;;;;;;;;5114169;28;20356;-72
2022/06/09 06:51:54;;;;;;;;;;;;;;;;;;5114393;28;19908;-73
2022/06/09 06:54:19;;;;;;;;;;;;;;;;;;5114165;28;19907;-72
2022/06/09 06:56:45;;;;;;;;;;;;;;;;;;5092756;28;19950;-77
2022/06/09 06:59:11;;;;;;;;;;;;;;;;;;5114057;28;19934;-76
2022/06/09 07:01:37;;;;;;;;;;;;;;;;;;5104551;28;19926;-76
2022/06/09 07:04:03;;;;;;;;;;;;;;;;;;5095223;28;19916;-78
2022/06/09 07:06:29;;;;;;;;;;;;;;;;;;5095732;28;19908;-78
2022/06/09 07:08:55;;;;;;;;;;;;;;;;;;5109985;28;19938;-76
2022/06/09 07:11:21;;;;;;;;;;;;;;;;;;5113300;28;19912;-77
2022/06/09 07:13:47;;;;;;;;;;;;;;;;;;5113516;28;19914;-77
2022/06/09 07:16:13;;;;;;;;;;;;;;;;;;5095449;28;19933;-79
2022/06/09 07:18:39;;;;;;;;;;;;;;;;;;5111866;28;19919;-76
2022/06/09 07:21:05;;;;;;;;;;;;;;;;;;5118200;28;19915;-77
2022/06/09 07:23:31;;;;;;;;;;;;;;;;;;5115302;28;19916;-73
2022/06/09 07:25:57;;;;;;;;;;;;;;;;;;5117322;28;20380;-77
2022/06/09 07:28:22;;;;;;;;;;;;;;;;;;5098223;28;19911;-76
2022/06/09 07:30:48;;;;;;;;;;;;;;;;;;5115050;28;19912;-75
2022/06/09 07:33:14;;;;;;;;;;;;;;;;;;5117044;28;19918;-72
2022/06/09 07:35:40;;;;;;;;;;;;;;;;;;5117099;28;20267;-72
2022/06/09 07:38:06;;;;;;;;;;;;;;;;;;5098962;28;19911;-73
2022/06/09 07:40:32;;;;;;;;;;;;;;;;;;5115042;28;20273;-72
2022/06/09 07:42:58;;;;;;;;;;;;;;;;;;5097871;28;20006;-77
2022/06/09 07:45:24;;;;;;;;;;;;;;;;;;5098473;28;19912;-75
2022/06/09 07:47:50;;;;;;;;;;;;;;;;;;5117413;28;19915;-76
2022/06/09 07:50:16;;;;;;;;;;;;;;;;;;5116943;28;19977;-77
2022/06/09 07:52:43;;;;;;;;;;;;;;;;;;5117229;28;20364;-77
2022/06/09 07:55:09;;;;;;;;;;;;;;;;;;5116098;28;19915;-75
2022/06/09 07:57:35;;;;;;;;;;;;;;;;;;5116060;28;20285;-76
2022/06/09 08:00:03;;;;;;;;;;;;;;;;;;5116347;28;19919;-75
2022/06/09 08:02:29;;;;;;;;;;;;;;;;;;5097009;28;19923;-75
2022/06/09 08:04:55;;;;;;;;;;;;;;;;;;5097723;28;19908;-76
2022/06/09 08:07:21;;;;;;;;;;;;;;;;;;5096205;28;19909;-77
2022/06/09 08:09:47;;;;;;;;;;;;;;;;;;5105135;28;20064;-73
2022/06/09 08:12:13;;;;;;;;;;;;;;;;;;5116539;28;19947;-75
2022/06/09 08:14:39;;;;;;;;;;;;;;;;;;5116625;28;19914;-75
2022/06/09 08:17:05;;;;;;;;;;;;;;;;;;5116005;28;19912;-77
2022/06/09 08:19:31;;;;;;;;;;;;;;;;;;5097032;28;19915;-77
2022/06/09 08:21:57;;;;;;;;;;;;;;;;;;5115131;28;19966;-76
2022/06/09 08:24:23;;;;;;;;;;;;;;;;;;5114935;28;19950;-75
2022/06/09 08:26:49;;;;;;;;;;;;;;;;;;5113418;28;19924;-74
2022/06/09 08:29:15;;;;;;;;;;;;;;;;;;5110634;28;19912;-75
2022/06/09 08:31:43;;;;;;;;;;;;;;;;;;5111568;28;21488;-75
2022/06/09 08:34:11;;;;;;;;;;;;;;;;;;5108963;28;19922;-75
2022/06/09 08:36:37;;;;;;;;;;;;;;;;;;5114307;28;19947;-73
2022/06/09 08:39:02;;;;;;;;;;;;;;;;;;5113447;28;19943;-74
2022/06/09 08:41:29;;;;;;;;;;;;;;;;;;5115218;28;20402;-74
2022/06/09 08:43:55;;;;;;;;;;;;;;;;;;5115416;28;20383;-75
2022/06/09 08:46:21;;;;;;;;;;;;;;;;;;5096781;28;19918;-76
2022/06/09 08:48:47;;;;;;;;;;;;;;;;;;5114483;28;19912;-75
2022/06/09 08:51:13;;;;;;;;;;;;;;;;;;5113606;28;19912;-75
2022/06/09 08:53:39;;;;;;;;;;;;;;;;;;5116170;28;19915;-77
2022/06/09 08:56:05;;;;;;;;;;;;;;;;;;5115010;28;19912;-79
2022/06/09 08:58:31;;;;;;;;;;;;;;;;;;5096469;28;20445;-77
2022/06/09 09:00:57;;;;;;;;;;;;;;;;;;5113509;28;19911;-75
2022/06/09 09:03:23;;;;;;;;;;;;;;;;;;5116092;28;19908;-75
2022/06/09 09:05:49;;;;;;;;;;;;;;;;;;5080054;28;19974;-75
2022/06/09 09:08:15;;;;;;;;;;;;;;;;;;5105265;28;19918;-75
2022/06/09 09:10:41;;;;;;;;;;;;;;;;;;5113666;28;20387;-77
2022/06/09 09:13:08;;;;;;;;;;;;;;;;;;5115740;28;19920;-83
2022/06/09 09:15:34;;;;;;;;;;;;;;;;;;5096955;28;20003;-80
2022/06/09 09:18:00;;;;;;;;;;;;;;;;;;5114587;28;19922;-84
2022/06/09 09:20:26;;;;;;;;;;;;;;;;;;5083398;28;20003;-78
2022/06/09 09:22:52;;;;;;;;;;;;;;;;;;5094259;28;19912;-80
2022/06/09 09:25:18;;;;;;;;;;;;;;;;;;5084968;28;19908;-79
2022/06/09 09:27:44;;;;;;;;;;;;;;;;;;5098731;28;19916;-74
2022/06/09 09:30:10;;;;;;;;;;;;;;;;;;5094954;28;19909;-76
2022/06/09 09:32:36;;;;;;;;;;;;;;;;;;5109928;28;19919;-78
2022/06/09 09:35:02;;;;;;;;;;;;;;;;;;5114076;28;20273;-76
2022/06/09 09:37:28;;;;;;;;;;;;;;;;;;5114789;28;19908;-76
2022/06/09 09:39:54;;;;;;;;;;;;;;;;;;5115731;28;19907;-78
2022/06/09 09:42:20;;;;;;;;;;;;;;;;;;5113555;28;19912;-74
2022/06/09 09:44:46;;;;;;;;;;;;;;;;;;5108450;28;20299;-73
2022/06/09 09:47:12;;;;;;;;;;;;;;;;;;5114989;28;19911;-76
2022/06/09 09:49:38;;;;;;;;;;;;;;;;;;5085527;28;19911;-76
2022/06/09 09:52:04;;;;;;;;;;;;;;;;;;5096391;28;20393;-74
2022/06/09 09:54:31;;;;;;;;;;;;;;;;;;5115403;28;19933;-76
2022/06/09 09:56:56;;;;;;;;;;;;;;;;;;5096067;28;19912;-78
2022/06/09 09:59:22;;;;;;;;;;;;;;;;;;5112613;28;19922;-74
2022/06/09 10:10:02;;;;;;;;;;;;;;;;;;5114843;28;20035;-74
2022/06/09 10:12:28;;;;;;;;;;;;;;;;;;5114722;28;19916;-74
2022/06/09 10:14:54;;;;;;;;;;;;;;;;;;5114569;28;20363;-74
2022/06/09 10:17:20;;;;;;;;;;;;;;;;;;5113415;28;19919;-76
2022/06/09 10:19:46;;;;;;;;;;;;;;;;;;5114434;28;19912;-76
2022/06/09 10:22:12;;;;;;;;;;;;;;;;;;5114495;28;19908;-76
2022/06/09 10:24:38;;;;;;;;;;;;;;;;;;5112637;28;19912;-76
2022/06/09 10:27:04;;;;;;;;;;;;;;;;;;5090813;28;19977;-73
2022/06/09 10:29:30;;;;;;;;;;;;;;;;;;5094665;28;20256;-76
2022/06/09 10:31:55;;;;;;;;;;;;;;;;;;5094041;28;19908;-76
2022/06/09 10:34:22;;;;;;;;;;;;;;;;;;5094108;28;20399;-76
2022/06/09 10:36:48;;;;;;;;;;;;;;;;;;5091362;28;19912;-73
2022/06/09 10:39:14;;;;;;;;;;;;;;;;;;5093161;28;19916;-76
2022/06/09 10:41:40;;;;;;;;;;;;;;;;;;5094180;28;19915;-75
2022/06/09 10:44:06;;;;;;;;;;;;;;;;;;5084712;28;19913;-72
2022/06/09 10:46:32;;;;;;;;;;;;;;;;;;5072713;28;19962;-73
2022/06/09 10:57:12;;;;;;;;;;;;;;;;;;5073293;28;20296;-73
2022/06/09 10:59:38;;;;;;;;;;;;;;;;;;5073441;28;19913;-73
2022/06/09 11:02:04;;;;;;;;;;;;;;;;;;5072188;28;19909;-72
2022/06/09 11:04:30;;;;;;;;;;;;;;;;;;5072161;28;19908;-72
2022/06/09 11:06:55;;;;;;;;;;;;;;;;;;5071944;28;19908;-73
2022/06/09 11:09:21;;;;;;;;;;;;;;;;;;5073403;28;19957;-72
2022/06/09 11:11:47;;;;;;;;;;;;;;;;;;5072107;28;19908;-72
2022/06/09 11:14:15;;;;;;;;;;;;;;;;;;5073394;28;19916;-73
2022/06/09 11:16:41;;;;;;;;;;;;;;;;;;5073342;28;20105;-73
2022/06/09 11:19:07;;;;;;;;;;;;;;;;;;5073223;28;20029;-71
2022/06/09 11:21:33;;;;;;;;;;;;;;;;;;5073600;28;19915;-73
2022/06/09 11:24:00;;;;;;;;;;;;;;;;;;5073505;28;19912;-72
2022/06/09 11:26:26;;;;;;;;;;;;;;;;;;5071736;28;20423;-73
2022/06/09 11:28:52;;;;;;;;;;;;;;;;;;5073213;28;19913;-73
2022/06/09 11:31:18;;;;;;;;;;;;;;;;;;5073748;28;19908;-73
2022/06/09 11:33:44;;;;;;;;;;;;;;;;;;5073456;28;20267;-73
2022/06/09 11:36:10;;;;;;;;;;;;;;;;;;5073171;28;19964;-72
2022/06/09 11:38:36;;;;;;;;;;;;;;;;;;5073339;28;19919;-73
2022/06/09 11:41:03;;;;;;;;;;;;;;;;;;5073077;28;20293;-72
2022/06/09 11:43:29;;;;;;;;;;;;;;;;;;5071877;28;19912;-73
2022/06/09 11:45:55;;;;;;;;;;;;;;;;;;5073368;28;19916;-73
2022/06/09 11:48:21;;;;;;;;;;;;;;;;;;5073281;28;19912;-72
2022/06/09 11:50:47;;;;;;;;;;;;;;;;;;5073011;28;20301;-71
2022/06/09 11:53:13;;;;;;;;;;;;;;;;;;5073269;28;19916;-72
2022/06/09 11:55:57;;;;;;;;;;;;;;;;;;5072973;28;20365;-72
2022/06/09 11:58:23;;;;;;;;;;;;;;;;;;5073496;28;19919;-73
2022/06/09 12:00:49;;;;;;;;;;;;;;;;;;5071622;28;19998;-74
2022/06/09 12:03:15;;;;;;;;;;;;;;;;;;5073149;28;19909;-73
2022/06/09 12:05:40;;;;;;;;;;;;;;;;;;5072881;28;19915;-73
2022/06/09 12:08:06;;;;;;;;;;;;;;;;;;5076470;28;19916;-73
2022/06/09 12:10:33;;;;;;;;;;;;;;;;;;5076696;28;19908;-73
2022/06/09 12:12:59;;;;;;;;;;;;;;;;;;5075072;28;19913;-71
2022/06/09 12:15:25;;;;;;;;;;;;;;;;;;5076461;28;19958;-72
2022/06/09 12:17:50;;;;;;;;;;;;;;;;;;5076468;28;19913;-72
2022/06/09 12:20:16;;;;;;;;;;;;;;;;;;5076197;28;19908;-72
2022/06/09 12:22:42;;;;;;;;;;;;;;;;;;5076465;28;19909;-72
2022/06/09 12:25:10;;;;;;;;;;;;;;;;;;5076808;28;19909;-73
2022/06/09 12:27:42;;;;;;;;;;;;;;;;;;5077932;28;19909;-73
2022/06/09 12:30:09;;;;;;;;;;;;;;;;;;5078036;28;20365;-72
2022/06/09 12:32:35;;;;;;;;;;;;;;;;;;5096802;28;19908;-73
2022/06/09 12:35:01;;;;;;;;;;;;;;;;;;5096155;28;20333;-72
2022/06/09 12:37:28;;;;;;;;;;;;;;;;;;5096181;28;20003;-72
2022/06/09 12:39:54;;;;;;;;;;;;;;;;;;5096282;28;19965;-73
2022/06/09 12:42:19;;;;;;;;;;;;;;;;;;5095997;28;19912;-74
2022/06/09 12:44:46;;;;;;;;;;;;;;;;;;5095881;28;19908;-74
2022/06/09 12:47:12;;;;;;;;;;;;;;;;;;5077523;28;20368;-72
2022/06/09 12:49:38;;;;;;;;;;;;;;;;;;5096438;28;19908;-71
2022/06/09 12:52:05;;;;;;;;;;;;;;;;;;5077621;28;19908;-74
2022/06/09 12:54:30;;;;;;;;;;;;;;;;;;5096037;28;20368;-73
2022/06/09 12:56:56;;;;;;;;;;;;;;;;;;5095740;28;19930;-73
2022/06/09 12:59:22;;;;;;;;;;;;;;;;;;5095939;28;19912;-73
2022/06/09 13:01:48;;;;;;;;;;;;;;;;;;5095692;28;19908;-72
2022/06/09 13:04:14;;;;;;;;;;;;;;;;;;5095677;28;19908;-72
2022/06/09 13:06:40;;;;;;;;;;;;;;;;;;5096118;28;20336;-72
2022/06/09 13:09:06;;;;;;;;;;;;;;;;;;5095526;28;19915;-73
2022/06/09 13:14:16;;;;;;;;;;;;;;;;;;5095488;28;20390;-72
2022/06/09 13:16:42;;;;;;;;;;;;;;;;;;5094823;28;19908;-72
2022/06/09 13:19:08;;;;;;;;;;;;;;;;;;5095170;28;19912;-73
2022/06/09 13:21:34;;;;;;;;;;;;;;;;;;5095847;28;19957;-72
2022/06/09 13:24:00;;;;;;;;;;;;;;;;;;5095495;28;19915;-73
2022/06/09 13:26:26;;;;;;;;;;;;;;;;;;5094951;28;19981;-71
2022/06/09 13:28:51;;;;;;;;;;;;;;;;;;5095676;28;19908;-72
2022/06/09 13:31:18;;;;;;;;;;;;;;;;;;5095085;28;19908;-72
2022/06/09 13:33:43;;;;;;;;;;;;;;;;;;5095300;28;19957;-73
2022/06/09 13:36:09;;;;;;;;;;;;;;;;;;5094978;28;19908;-72
2022/06/09 13:38:36;;;;;;;;;;;;;;;;;;5094908;28;19912;-72
2022/06/09 13:41:02;;;;;;;;;;;;;;;;;;5095168;28;19912;-73
2022/06/09 13:43:28;;;;;;;;;;;;;;;;;;5095151;28;20379;-73
2022/06/09 13:45:54;;;;;;;;;;;;;;;;;;5094854;28;19930;-72
2022/06/09 13:48:20;;;;;;;;;;;;;;;;;;5094742;28;19908;-73
2022/06/09 13:50:46;;;;;;;;;;;;;;;;;;5094700;28;19914;-73
2022/06/09 13:53:12;;;;;;;;;;;;;;;;;;5095239;28;20300;-72
2022/06/09 13:55:38;;;;;;;;;;;;;;;;;;5094587;28;19908;-72
2022/06/09 13:58:03;;;;;;;;;;;;;;;;;;5095041;28;20253;-72
2022/06/09 14:00:29;;;;;;;;;;;;;;;;;;5094576;28;19951;-73
2022/06/09 14:02:55;;;;;;;;;;;;;;;;;;5094828;28;19912;-73
2022/06/09 14:05:21;;;;;;;;;;;;;;;;;;5094476;28;19933;-73
2022/06/09 14:07:47;;;;;;;;;;;;;;;;;;5094682;28;19909;-73
2022/06/09 14:10:13;;;;;;;;;;;;;;;;;;5094357;28;19915;-73
2022/06/09 14:12:39;;;;;;;;;;;;;;;;;;5094345;28;19912;-72
2022/06/09 14:15:05;;;;;;;;;;;;;;;;;;5094285;28;20262;-72
2022/06/09 14:17:31;;;;;;;;;;;;;;;;;;5094184;28;19911;-72
2022/06/09 14:19:57;;;;;;;;;;;;;;;;;;5094682;28;20371;-73
2022/06/09 14:22:23;;;;;;;;;;;;;;;;;;5094484;28;19912;-73
2022/06/09 14:24:48;;;;;;;;;;;;;;;;;;5094148;28;19912;-72
2022/06/09 14:27:15;;;;;;;;;;;;;;;;;;5072187;28;19921;-73
2022/06/09 14:29:40;;;;;;;;;;;;;;;;;;5073098;28;19908;-72
2022/06/09 14:32:06;;;;;;;;;;;;;;;;;;5074353;28;20276;-73
2022/06/09 14:34:33;;;;;;;;;;;;;;;;;;5074028;28;19951;-73
2022/06/09 14:36:59;;;;;;;;;;;;;;;;;;5074097;28;19919;-74
2022/06/09 14:39:25;;;;;;;;;;;;;;;;;;5073636;28;20365;-72
2022/06/09 14:41:51;;;;;;;;;;;;;;;;;;5073756;28;19954;-72
2022/06/09 14:44:17;;;;;;;;;;;;;;;;;;5073993;28;20019;-73
2022/06/09 14:46:43;;;;;;;;;;;;;;;;;;5073714;28;19913;-73
2022/06/09 14:49:09;;;;;;;;;;;;;;;;;;5074188;28;20430;-73
2022/06/09 14:51:34;;;;;;;;;;;;;;;;;;5073617;28;19916;-72
2022/06/09 14:54:00;;;;;;;;;;;;;;;;;;5074132;28;20416;-73
2022/06/09 14:56:26;;;;;;;;;;;;;;;;;;5073876;28;19912;-73
2022/06/09 14:58:52;;;;;;;;;;;;;;;;;;5073459;28;20011;-73
2022/06/09 15:01:18;;;;;;;;;;;;;;;;;;5072211;28;20315;-73
2022/06/09 15:03:44;;;;;;;;;;;;;;;;;;5073456;28;19909;-73
2022/06/09 15:06:10;;;;;;;;;;;;;;;;;;5071938;28;19908;-73
2022/06/09 15:08:36;;;;;;;;;;;;;;;;;;5073967;28;19908;-72
2022/06/09 15:11:02;;;;;;;;;;;;;;;;;;5073415;28;19919;-71
2022/06/09 15:13:28;;;;;;;;;;;;;;;;;;5072195;28;20331;-71
2022/06/09 15:15:56;;;;;;;;;;;;;;;;;;5073335;28;19923;-73
2022/06/09 15:18:22;;;;;;;;;;;;;;;;;;5073305;28;20261;-70
2022/06/09 15:20:48;;;;;;;;;;;;;;;;;;5073931;28;19959;-72
2022/06/09 15:23:14;;;;;;;;;;;;;;;;;;5072064;28;19908;-74
2022/06/09 15:25:40;;;;;;;;;;;;;;;;;;5078508;28;19920;-73
2022/06/09 15:28:06;;;;;;;;;;;;;;;;;;5093790;28;19908;-72
2022/06/09 15:30:32;;;;;;;;;;;;;;;;;;5093391;28;19908;-73
2022/06/09 15:32:58;;;;;;;;;;;;;;;;;;5093966;28;19957;-72
2022/06/09 15:35:24;;;;;;;;;;;;;;;;;;5093327;28;19908;-72
2022/06/09 15:37:50;;;;;;;;;;;;;;;;;;5093562;28;19992;-74
2022/06/09 15:40:16;;;;;;;;;;;;;;;;;;5094283;28;19915;-73
2022/06/09 15:42:42;;;;;;;;;;;;;;;;;;5097492;28;19908;-73
2022/06/09 15:45:08;;;;;;;;;;;;;;;;;;5078986;28;19915;-72
2022/06/09 15:47:33;;;;;;;;;;;;;;;;;;5097681;28;19909;-72
2022/06/09 15:49:59;;;;;;;;;;;;;;;;;;5078940;28;19912;-71
2022/06/09 15:52:25;;;;;;;;;;;;;;;;;;5097657;28;20394;-73
2022/06/09 15:54:51;;;;;;;;;;;;;;;;;;5097306;28;19915;-72
2022/06/09 15:57:18;;;;;;;;;;;;;;;;;;5097206;28;20363;-72
2022/06/09 15:59:43;;;;;;;;;;;;;;;;;;5096815;28;19913;-72
2022/06/09 16:02:09;;;;;;;;;;;;;;;;;;5096758;28;20265;-73
2022/06/09 16:04:36;;;;;;;;;;;;;;;;;;5097063;28;20326;-72
2022/06/09 16:07:02;;;;;;;;;;;;;;;;;;5097064;28;19912;-72
2022/06/09 16:09:28;;;;;;;;;;;;;;;;;;5097294;28;19999;-72
2022/06/09 16:11:54;;;;;;;;;;;;;;;;;;5096675;28;19912;-73
2022/06/09 16:14:20;;;;;;;;;;;;;;;;;;5096629;28;19908;-72
2022/06/09 16:16:46;;;;;;;;;;;;;;;;;;5096451;28;19909;-73
2022/06/09 16:19:12;;;;;;;;;;;;;;;;;;5096435;28;20009;-73
2022/06/09 16:21:38;;;;;;;;;;;;;;;;;;5096721;28;19912;-73
2022/06/09 16:24:03;;;;;;;;;;;;;;;;;;5096353;28;19908;-71
2022/06/09 16:26:29;;;;;;;;;;;;;;;;;;5095984;28;19963;-73
2022/06/09 16:28:55;;;;;;;;;;;;;;;;;;5096308;28;19912;-72
2022/06/09 16:31:21;;;;;;;;;;;;;;;;;;5096280;28;19915;-71
2022/06/09 16:33:47;;;;;;;;;;;;;;;;;;5096500;28;19962;-72
2022/06/09 16:36:13;;;;;;;;;;;;;;;;;;5096179;28;20364;-72
2022/06/09 16:38:39;;;;;;;;;;;;;;;;;;5096090;28;19972;-72
2022/06/09 16:41:05;;;;;;;;;;;;;;;;;;5096130;28;20276;-73
2022/06/09 16:43:32;;;;;;;;;;;;;;;;;;5095962;28;19908;-72
2022/06/09 16:45:57;;;;;;;;;;;;;;;;;;5077640;28;20276;-73
2022/06/09 16:48:23;;;;;;;;;;;;;;;;;;5077796;28;19908;-72
2022/06/09 16:50:49;;;;;;;;;;;;;;;;;;5096180;28;19920;-73
2022/06/09 16:53:15;;;;;;;;;;;;;;;;;;5076875;28;20360;-72
2022/06/09 16:55:41;;;;;;;;;;;;;;;;;;5096071;28;19908;-73
2022/06/09 16:58:07;;;;;;;;;;;;;;;;;;5095693;28;20347;-73
2022/06/09 17:00:34;;;;;;;;;;;;;;;;;;5096047;28;19916;-73
2022/06/09 17:03:00;;;;;;;;;;;;;;;;;;5095667;28;20284;-72
2022/06/09 17:05:26;;;;;;;;;;;;;;;;;;5096188;28;19915;-72
2022/06/09 17:07:53;;;;;;;;;;;;;;;;;;5095577;28;19908;-73